createdAt,value
2022-12-25T00:00:10.436Z,99079.81
2022-12-25T00:02:42.416Z,99083.41
2022-12-25T00:05:10.904Z,99077.16
2022-12-25T00:07:39.260Z,99078.78
2022-12-25T00:10:09.573Z,99084.09
2022-12-25T00:12:37.931Z,99080.06
2022-12-25T00:15:07.383Z,99081.72
2022-12-25T00:17:35.749Z,99085.31
2022-12-25T00:20:07.068Z,99082.72
2022-12-25T00:22:35.433Z,99095.81
2022-12-25T00:25:03.979Z,99082.69
2022-12-25T00:27:32.835Z,99086.28
2022-12-25T00:30:01.664Z,99087.38
2022-12-25T00:32:30.122Z,99083.88
2022-12-25T00:34:58.447Z,99093.63
2022-12-25T00:37:28.138Z,99094.81
2022-12-25T00:39:56.500Z,99102.19
2022-12-25T00:42:26.846Z,99094.09
2022-12-25T00:44:55.289Z,99105.75
2022-12-25T00:47:24.056Z,99111.00
2022-12-25T00:49:52.587Z,99111.00
2022-12-25T00:52:20.964Z,99110.91
2022-12-25T00:54:50.832Z,99110.19
2022-12-25T00:57:19.642Z,99112.69
2022-12-25T00:59:48.066Z,99109.19
2022-12-25T01:02:25.881Z,99107.66
2022-12-25T01:04:56.619Z,99112.09
2022-12-25T01:07:27.018Z,99103.63
2022-12-25T01:10:14.527Z,99103.88
2022-12-25T01:12:44.577Z,99104.56
2022-12-25T01:15:14.145Z,99098.53
2022-12-25T01:17:43.562Z,99101.09
2022-12-25T01:20:13.184Z,99106.41
2022-12-25T01:22:41.671Z,99098.41
2022-12-25T01:25:12.680Z,99105.41
2022-12-25T01:27:42.521Z,99100.97
2022-12-25T01:30:12.209Z,99091.31
2022-12-25T01:32:40.559Z,99097.50
2022-12-25T01:35:09.477Z,99090.72
2022-12-25T01:37:37.780Z,99098.69
2022-12-25T01:40:07.597Z,99095.13
2022-12-25T01:42:37.426Z,99095.19
2022-12-25T01:45:32.886Z,99097.78
2022-12-25T01:48:03.432Z,99095.16
2022-12-25T01:50:32.079Z,99101.22
2022-12-25T01:53:00.560Z,99104.75
2022-12-25T01:55:29.372Z,99110.19
2022-12-25T01:57:59.234Z,99107.69
2022-12-25T02:00:27.533Z,99120.81
2022-12-25T02:02:56.737Z,99120.00
2022-12-25T02:05:29.097Z,99125.59
2022-12-25T02:07:59.259Z,99117.81
2022-12-25T02:10:27.631Z,99118.66
2022-12-25T02:12:56.318Z,99115.44
2022-12-25T02:15:32.216Z,99119.72
2022-12-25T02:18:08.143Z,99115.19
2022-12-25T02:21:09.609Z,99116.84
2022-12-25T02:24:07.053Z,99118.75
2022-12-25T02:27:03.284Z,99115.13
2022-12-25T02:29:39.359Z,99130.31
2022-12-25T02:32:15.440Z,99128.53
2022-12-25T02:34:50.789Z,99132.28
2022-12-25T02:37:26.895Z,99128.06
2022-12-25T02:40:01.481Z,99133.22
2022-12-25T02:42:55.620Z,99141.97
2022-12-25T02:45:49.533Z,99132.47
2022-12-25T02:48:38.124Z,99135.06
2022-12-25T02:51:28.093Z,99137.59
2022-12-25T02:54:18.687Z,99134.16
2022-12-25T02:57:07.447Z,99135.94
2022-12-25T02:59:57.328Z,99131.28
2022-12-25T03:02:47.489Z,99127.72
2022-12-25T03:05:38.026Z,99131.91
2022-12-25T03:08:11.015Z,99126.66
2022-12-25T03:11:02.487Z,99127.28
2022-12-25T03:13:37.602Z,99106.88
2022-12-25T03:16:25.281Z,99101.41
2022-12-25T03:18:58.183Z,99094.22
2022-12-25T03:21:59.125Z,99082.81
2022-12-25T03:24:45.330Z,99085.59
2022-12-25T03:27:13.654Z,99091.81
2022-12-25T03:29:59.754Z,99075.16
2022-12-25T03:32:33.964Z,99070.75
2022-12-25T03:35:23.121Z,99067.41
2022-12-25T03:38:29.626Z,99058.63
2022-12-25T03:41:25.020Z,99064.09
2022-12-25T03:44:14.631Z,99047.63
2022-12-25T03:47:06.977Z,99038.72
2022-12-25T03:50:00.430Z,99047.34
2022-12-25T03:52:49.932Z,99054.44
2022-12-25T03:55:37.759Z,99057.00
2022-12-25T03:58:23.650Z,99049.16
2022-12-25T04:01:09.936Z,99050.81
2022-12-25T04:03:55.745Z,99056.91
2022-12-25T04:06:41.640Z,99055.81
2022-12-25T04:09:28.635Z,99064.78
2022-12-25T04:12:14.444Z,99065.47
2022-12-25T04:15:00.356Z,99063.81
2022-12-25T04:17:45.636Z,99056.16
2022-12-25T04:20:27.910Z,99059.56
2022-12-25T04:23:28.701Z,99063.97
2022-12-25T04:26:17.871Z,99058.59
2022-12-25T04:29:03.896Z,99052.34
2022-12-25T04:31:49.340Z,99047.22
2022-12-25T04:34:35.051Z,99059.66
2022-12-25T04:37:03.602Z,99063.03
2022-12-25T04:39:31.966Z,99070.75
2022-12-25T04:42:01.720Z,99057.53
2022-12-25T04:44:30.149Z,99049.53
2022-12-25T04:46:58.483Z,99038.22
2022-12-25T04:49:26.829Z,99032.97
2022-12-25T04:51:55.196Z,99024.28
2022-12-25T04:54:23.591Z,99027.06
2022-12-25T04:56:51.916Z,99022.72
2022-12-25T04:59:21.744Z,99020.03
2022-12-25T05:01:50.161Z,99015.72
2022-12-25T05:04:18.643Z,99018.19
2022-12-25T05:06:47.003Z,99026.78
2022-12-25T05:09:15.307Z,99019.72
2022-12-25T05:11:43.621Z,99018.66
2022-12-25T05:14:12.051Z,99026.41
2022-12-25T05:16:41.973Z,99009.75
2022-12-25T05:19:10.455Z,98998.22
2022-12-25T05:21:38.780Z,98986.81
2022-12-25T05:24:07.885Z,98990.28
2022-12-25T05:26:36.292Z,98998.91
2022-12-25T05:29:04.605Z,98991.84
2022-12-25T05:31:33.797Z,98986.84
2022-12-25T05:34:03.694Z,98985.81
2022-12-25T05:36:32.018Z,98981.50
2022-12-25T05:39:00.525Z,98978.81
2022-12-25T05:41:33.973Z,98978.91
2022-12-25T05:44:03.281Z,98975.44
2022-12-25T05:46:31.775Z,98965.09
2022-12-25T05:49:00.154Z,98971.22
2022-12-25T05:51:30.885Z,98974.91
2022-12-25T05:53:59.550Z,98970.63
2022-12-25T05:56:27.982Z,98968.13
2022-12-25T05:58:56.314Z,98961.59
2022-12-25T06:01:27.428Z,98965.75
2022-12-25T06:03:55.951Z,98971.91
2022-12-25T06:06:24.375Z,98954.56
2022-12-25T06:08:56.091Z,98947.34
2022-12-25T06:11:24.545Z,98944.06
2022-12-25T06:13:53.935Z,98935.34
2022-12-25T06:16:22.476Z,98922.88
2022-12-25T06:18:52.859Z,98922.97
2022-12-25T06:21:21.325Z,98934.59
2022-12-25T06:23:49.828Z,98932.72
2022-12-25T06:26:20.753Z,98930.22
2022-12-25T06:28:49.196Z,98924.16
2022-12-25T06:31:20.679Z,98927.34
2022-12-25T06:33:49.643Z,98936.28
2022-12-25T06:36:20.582Z,98923.19
2022-12-25T06:38:49.612Z,98906.44
2022-12-25T06:41:20.887Z,98904.28
2022-12-25T06:43:50.266Z,98901.66
2022-12-25T06:46:19.642Z,98887.28
2022-12-25T06:48:49.489Z,98884.81
2022-12-25T06:51:19.038Z,98865.66
2022-12-25T06:53:47.804Z,98862.22
2022-12-25T06:56:19.884Z,98860.63
2022-12-25T06:58:50.341Z,98852.84
2022-12-25T07:01:21.813Z,98834.16
2022-12-25T07:03:53.073Z,98848.38
2022-12-25T07:06:21.421Z,98857.09
2022-12-25T07:08:49.917Z,98848.53
2022-12-25T07:11:19.845Z,98861.66
2022-12-25T07:13:48.414Z,98874.75
2022-12-25T07:16:17.223Z,98870.53
2022-12-25T07:18:45.686Z,98865.31
2022-12-25T07:21:15.814Z,98860.34
2022-12-25T07:23:45.772Z,98874.56
2022-12-25T07:26:15.090Z,98866.47
2022-12-25T07:28:44.878Z,98841.00
2022-12-25T07:31:15.120Z,98828.63
2022-12-25T07:33:44.651Z,98814.25
2022-12-25T07:36:13.416Z,98811.59
2022-12-25T07:38:42.325Z,98826.50
2022-12-25T07:41:11.679Z,98821.09
2022-12-25T07:43:40.197Z,98816.31
2022-12-25T07:46:10.805Z,98810.94
2022-12-25T07:48:39.398Z,98823.19
2022-12-25T07:51:12.691Z,98826.66
2022-12-25T07:53:42.103Z,98825.81
2022-12-25T07:56:13.803Z,98812.56
2022-12-25T07:58:42.485Z,98807.44
2022-12-25T08:01:16.591Z,98803.19
2022-12-25T08:03:49.245Z,98801.22
2022-12-25T08:06:17.726Z,98802.09
2022-12-25T08:08:46.437Z,98805.59
2022-12-25T08:11:14.969Z,98798.13
2022-12-25T08:13:43.452Z,98789.19
2022-12-25T08:16:13.542Z,98765.38
2022-12-25T08:18:42.963Z,98765.31
2022-12-25T08:21:12.962Z,98778.31
2022-12-25T08:23:43.237Z,98800.34
2022-12-25T08:26:14.519Z,98815.00
2022-12-25T08:28:43.165Z,98809.91
2022-12-25T08:31:16.732Z,98824.09
2022-12-25T08:33:45.818Z,98823.38
2022-12-25T08:36:14.451Z,98825.00
2022-12-25T08:38:43.399Z,98817.19
2022-12-25T08:41:12.977Z,98803.72
2022-12-25T08:43:41.529Z,98814.41
2022-12-25T08:46:10.502Z,98803.13
2022-12-25T08:48:43.333Z,98812.94
2022-12-25T08:51:14.714Z,98814.75
2022-12-25T08:53:43.351Z,98824.47
2022-12-25T08:56:12.488Z,98821.09
2022-12-25T08:58:41.649Z,98836.03
2022-12-25T09:01:24.606Z,98849.94
2022-12-25T09:04:00.042Z,98853.69
2022-12-25T09:06:30.274Z,98850.47
2022-12-25T09:09:01.315Z,98867.75
2022-12-25T09:11:29.787Z,98866.72
2022-12-25T09:13:58.245Z,98866.94
2022-12-25T09:16:26.813Z,98865.06
2022-12-25T09:18:58.747Z,98855.50
2022-12-25T09:21:27.235Z,98857.38
2022-12-25T09:23:55.643Z,98860.13
2022-12-25T09:26:24.097Z,98861.69
2022-12-25T09:28:52.931Z,98866.16
2022-12-25T09:32:03.657Z,98867.28
2022-12-25T09:34:34.409Z,98860.22
2022-12-25T09:37:03.352Z,98855.81
2022-12-25T09:39:31.776Z,98859.88
2022-12-25T09:42:03.185Z,98863.34
2022-12-25T09:44:35.562Z,98867.84
2022-12-25T09:47:08.422Z,98859.94
2022-12-25T09:49:41.169Z,98858.13
2022-12-25T09:52:13.597Z,98851.97
2022-12-25T09:54:51.018Z,98851.91
2022-12-25T09:57:19.467Z,98836.16
2022-12-25T09:59:47.839Z,98835.13
2022-12-25T10:02:48.327Z,98818.44
2022-12-25T10:05:39.448Z,98819.31
2022-12-25T10:08:16.616Z,98814.97
2022-12-25T10:10:51.728Z,98810.41
2022-12-25T10:13:35.392Z,98820.13
2022-12-25T10:16:18.327Z,98821.78
2022-12-25T10:19:02.293Z,98821.72
2022-12-25T10:21:32.232Z,98820.13
2022-12-25T10:24:08.300Z,98820.94
2022-12-25T10:26:36.714Z,98816.56
2022-12-25T10:29:14.316Z,98808.63
2022-12-25T10:31:46.801Z,98805.09
2022-12-25T10:34:17.336Z,98798.06
2022-12-25T10:36:47.276Z,98794.59
2022-12-25T10:39:18.481Z,98771.97
2022-12-25T10:42:05.587Z,98765.47
2022-12-25T10:44:35.596Z,98750.47
2022-12-25T10:47:05.605Z,98741.69
2022-12-25T10:49:38.301Z,98723.09
2022-12-25T10:52:21.024Z,98706.09
2022-12-25T10:54:49.595Z,98706.09
2022-12-25T10:57:19.766Z,98711.09
2022-12-25T10:59:50.418Z,98700.66
2022-12-25T11:02:24.985Z,98678.25
2022-12-25T11:05:05.017Z,98695.38
2022-12-25T11:07:55.601Z,98717.34
2022-12-25T11:10:33.045Z,98682.59
2022-12-25T11:13:04.441Z,98707.50
2022-12-25T11:16:06.464Z,98666.72
2022-12-25T11:19:25.317Z,98675.72
2022-12-25T11:25:48.442Z,98676.16
2022-12-25T11:28:16.876Z,98652.66
2022-12-25T11:30:47.886Z,98658.78
2022-12-25T11:33:17.678Z,98646.38
2022-12-25T11:35:53.803Z,98617.03
2022-12-25T11:38:29.545Z,98657.75
2022-12-25T11:41:24.896Z,98651.72
2022-12-25T11:44:06.136Z,98635.72
2022-12-25T11:46:42.753Z,98626.09
2022-12-25T11:49:17.407Z,98608.69
2022-12-25T11:51:56.513Z,98646.41
2022-12-25T11:54:31.147Z,98643.97
2022-12-25T11:57:05.718Z,98630.03
2022-12-25T11:59:39.392Z,98650.28
2022-12-25T12:02:25.266Z,98649.97
2022-12-25T12:05:03.666Z,98639.03
2022-12-25T12:07:35.352Z,98637.25
2022-12-25T12:10:14.940Z,98628.91
2022-12-25T12:12:53.170Z,98628.44
2022-12-25T12:15:30.074Z,98620.53
2022-12-25T12:18:09.858Z,98623.91
2022-12-25T12:20:40.740Z,98609.69
2022-12-25T12:23:16.493Z,98608.63
2022-12-25T12:25:46.594Z,98603.03
2022-12-25T12:28:23.656Z,98600.78
2022-12-25T12:31:01.337Z,98599.97
2022-12-25T12:33:34.438Z,98608.00
2022-12-25T12:36:05.209Z,98593.66
2022-12-25T12:38:35.647Z,98601.31
2022-12-25T12:41:08.329Z,98604.88
2022-12-25T12:43:41.152Z,98604.28
2022-12-25T12:46:17.775Z,98596.22
2022-12-25T12:48:47.947Z,98602.25
2022-12-25T12:51:28.978Z,98583.16
2022-12-25T12:54:20.414Z,98585.63
2022-12-25T12:57:01.406Z,98585.47
2022-12-25T12:59:39.452Z,98572.22
2022-12-25T13:02:36.283Z,98574.56
2022-12-25T13:05:06.269Z,98586.22
2022-12-25T13:07:46.445Z,98585.31
2022-12-25T13:10:24.894Z,98568.25
2022-12-25T13:13:00.612Z,98551.91
2022-12-25T13:15:32.437Z,98564.59
2022-12-25T13:18:04.663Z,98552.41
2022-12-25T13:20:41.280Z,98549.41
2022-12-25T13:23:24.843Z,98554.91
2022-12-25T13:25:54.638Z,98562.16
2022-12-25T13:28:28.664Z,98559.31
2022-12-25T13:31:03.674Z,98577.81
2022-12-25T13:33:32.228Z,98559.56
2022-12-25T13:36:00.644Z,98553.44
2022-12-25T13:38:29.850Z,98551.53
2022-12-25T13:41:17.484Z,98569.75
2022-12-25T13:43:49.376Z,98566.50
2022-12-25T13:46:26.214Z,98580.19
2022-12-25T13:49:00.110Z,98571.06
2022-12-25T13:51:29.868Z,98572.19
2022-12-25T13:54:05.898Z,98578.50
2022-12-25T13:56:35.818Z,98570.22
2022-12-25T13:59:05.881Z,98575.97
2022-12-25T14:01:34.930Z,98568.84
2022-12-25T14:04:04.326Z,98577.22
2022-12-25T14:06:32.968Z,98587.47
2022-12-25T14:09:01.682Z,98582.88
2022-12-25T14:11:32.077Z,98578.84
2022-12-25T14:14:03.190Z,98574.28
2022-12-25T14:16:33.414Z,98586.78
2022-12-25T14:19:03.455Z,98579.84
2022-12-25T14:21:34.245Z,98587.56
2022-12-25T14:24:02.827Z,98601.34
2022-12-25T14:26:34.360Z,98584.72
2022-12-25T14:29:15.781Z,98585.56
2022-12-25T14:31:48.290Z,98567.28
2022-12-25T14:34:19.682Z,98578.25
2022-12-25T14:36:49.376Z,98572.91
2022-12-25T14:39:30.854Z,98575.13
2022-12-25T14:41:59.310Z,98567.13
2022-12-25T14:44:36.805Z,98565.38
2022-12-25T14:47:22.093Z,98563.84
2022-12-25T14:49:51.046Z,98540.41
2022-12-25T14:52:23.695Z,98558.19
2022-12-25T14:54:55.582Z,98554.94
2022-12-25T14:57:29.620Z,98549.38
2022-12-25T15:00:02.570Z,98542.03
2022-12-25T15:02:41.777Z,98541.31
2022-12-25T15:05:35.297Z,98532.47
2022-12-25T15:08:21.567Z,98540.66
2022-12-25T15:11:01.234Z,98534.13
2022-12-25T15:13:32.346Z,98537.81
2022-12-25T15:16:07.448Z,98533.00
2022-12-25T15:18:40.722Z,98531.09
2022-12-25T15:21:16.670Z,98522.25
2022-12-25T15:23:45.542Z,98527.34
2022-12-25T15:26:15.135Z,98534.97
2022-12-25T15:28:43.685Z,98541.34
2022-12-25T15:31:20.737Z,98539.31
2022-12-25T15:33:50.939Z,98539.47
2022-12-25T15:36:19.594Z,98540.09
2022-12-25T15:38:48.594Z,98526.69
2022-12-25T15:41:34.074Z,98524.09
2022-12-25T15:44:02.693Z,98524.94
2022-12-25T15:46:31.572Z,98526.38
2022-12-25T15:49:01.871Z,98520.72
2022-12-25T15:51:30.368Z,98515.41
2022-12-25T15:53:58.998Z,98513.84
2022-12-25T15:56:28.453Z,98511.00
2022-12-25T15:58:56.886Z,98507.09
2022-12-25T16:01:25.300Z,98509.56
2022-12-25T16:03:53.842Z,98518.66
2022-12-25T16:06:23.812Z,98506.41
2022-12-25T16:08:52.268Z,98507.84
2022-12-25T16:11:20.635Z,98506.63
2022-12-25T16:13:49.009Z,98522.69
2022-12-25T16:16:17.381Z,98531.34
2022-12-25T16:18:47.553Z,98526.84
2022-12-25T16:21:20.001Z,98529.13
2022-12-25T16:23:49.973Z,98530.75
2022-12-25T16:26:18.584Z,98537.16
2022-12-25T16:28:47.110Z,98544.81
2022-12-25T16:31:16.671Z,98546.81
2022-12-25T16:33:45.346Z,98559.63
2022-12-25T16:36:13.856Z,98554.66
2022-12-25T16:38:42.647Z,98548.19
2022-12-25T16:41:14.076Z,98557.94
2022-12-25T16:43:43.128Z,98555.50
2022-12-25T16:46:14.310Z,98566.00
2022-12-25T16:48:43.077Z,98562.81
2022-12-25T16:51:12.672Z,98543.75
2022-12-25T16:53:41.660Z,98555.28
2022-12-25T16:56:15.505Z,98568.88
2022-12-25T16:58:46.513Z,98566.44
2022-12-25T17:01:17.516Z,98566.50
2022-12-25T17:03:46.330Z,98553.84
2022-12-25T17:06:15.701Z,98554.91
2022-12-25T17:08:44.509Z,98556.34
2022-12-25T17:11:15.049Z,98562.38
2022-12-25T17:13:47.378Z,98570.78
2022-12-25T17:16:16.910Z,98567.13
2022-12-25T17:18:45.945Z,98568.06
2022-12-25T17:21:15.479Z,98582.00
2022-12-25T17:23:45.249Z,98569.59
2022-12-25T17:26:15.042Z,98569.47
2022-12-25T17:28:43.407Z,98560.16
2022-12-25T17:31:14.293Z,98570.66
2022-12-25T17:33:44.353Z,98560.75
2022-12-25T17:36:14.572Z,98557.38
2022-12-25T17:38:43.373Z,98570.41
2022-12-25T17:41:13.842Z,98565.59
2022-12-25T17:43:45.605Z,98567.06
2022-12-25T17:46:17.891Z,98558.09
2022-12-25T17:48:46.940Z,98545.16
2022-12-25T17:51:17.042Z,98537.19
2022-12-25T17:53:47.924Z,98553.03
2022-12-25T17:56:17.758Z,98531.41
2022-12-25T17:58:51.913Z,98526.53
2022-12-25T18:01:21.623Z,98526.78
2022-12-25T18:03:50.352Z,98529.34
2022-12-25T18:06:21.745Z,98528.91
2022-12-25T18:08:50.993Z,98537.47
2022-12-25T18:11:23.523Z,98530.56
2022-12-25T18:13:53.520Z,98531.16
2022-12-25T18:16:24.390Z,98529.94
2022-12-25T18:18:53.413Z,98538.91
2022-12-25T18:21:23.196Z,98546.13
2022-12-25T18:23:51.869Z,98553.66
2022-12-25T18:26:21.600Z,98552.00
2022-12-25T18:28:51.249Z,98555.34
2022-12-25T18:31:23.905Z,98549.81
2022-12-25T18:33:52.839Z,98557.44
2022-12-25T18:36:23.817Z,98567.59
2022-12-25T18:38:53.710Z,98565.63
2022-12-25T18:41:23.247Z,98567.34
2022-12-25T18:43:55.665Z,98568.06
2022-12-25T18:46:27.063Z,98568.78
2022-12-25T18:48:56.606Z,98575.78
2022-12-25T18:51:27.660Z,98573.13
2022-12-25T18:54:01.810Z,98571.16
2022-12-25T18:56:30.199Z,98580.72
2022-12-25T18:59:00.387Z,98582.31
2022-12-25T19:01:30.215Z,98584.09
2022-12-25T19:04:04.323Z,98579.41
2022-12-25T19:06:33.811Z,98580.91
2022-12-25T19:09:09.448Z,98587.53
2022-12-25T19:11:45.657Z,98583.91
2022-12-25T19:14:15.429Z,98590.81
2022-12-25T19:16:45.344Z,98596.38
2022-12-25T19:19:14.055Z,98595.38
2022-12-25T19:21:42.636Z,98595.00
2022-12-25T19:24:11.094Z,98585.38
2022-12-25T19:26:39.526Z,98591.75
2022-12-25T19:29:07.827Z,98597.50
2022-12-25T19:31:38.013Z,98595.72
2022-12-25T19:34:08.587Z,98588.47
2022-12-25T19:36:37.580Z,98592.56
2022-12-25T19:39:08.487Z,98590.75
2022-12-25T19:41:36.906Z,98597.84
2022-12-25T19:44:06.558Z,98600.22
2022-12-25T19:46:37.420Z,98592.41
2022-12-25T19:49:06.177Z,98587.66
2022-12-25T19:51:38.283Z,98587.53
2022-12-25T19:54:07.277Z,98586.88
2022-12-25T19:56:36.069Z,98583.69
2022-12-25T19:59:04.517Z,98580.94
2022-12-25T20:01:33.429Z,98571.69
2022-12-25T20:04:03.491Z,98572.47
2022-12-25T20:06:33.934Z,98578.03
2022-12-25T20:09:06.268Z,98589.91
2022-12-25T20:11:36.747Z,98591.44
2022-12-25T20:14:05.339Z,98590.44
2022-12-25T20:16:34.381Z,98572.38
2022-12-25T20:19:02.771Z,98574.97
2022-12-25T20:21:31.476Z,98572.19
2022-12-25T20:24:00.128Z,98563.69
2022-12-25T20:26:31.939Z,98563.47
2022-12-25T20:29:00.539Z,98559.69
2022-12-25T20:31:30.269Z,98563.47
2022-12-25T20:34:01.427Z,98564.13
2022-12-25T20:36:36.448Z,98558.69
2022-12-25T20:39:09.187Z,98562.97
2022-12-25T20:41:39.888Z,98569.78
2022-12-25T20:44:10.007Z,98574.88
2022-12-25T20:46:38.553Z,98580.22
2022-12-25T20:49:07.233Z,98585.59
2022-12-25T20:51:35.990Z,98576.00
2022-12-25T20:54:08.277Z,98574.00
2022-12-25T20:56:37.411Z,98573.06
2022-12-25T20:59:07.284Z,98579.81
2022-12-25T21:01:35.816Z,98580.16
2022-12-25T21:04:04.312Z,98593.03
2022-12-25T21:06:32.908Z,98594.72
2022-12-25T21:09:01.295Z,98577.88
2022-12-25T21:11:31.206Z,98589.16
2022-12-25T21:13:59.712Z,98577.59
2022-12-25T21:16:30.206Z,98585.59
2022-12-25T21:18:59.221Z,98584.31
2022-12-25T21:21:27.609Z,98587.59
2022-12-25T21:23:56.747Z,98608.03
2022-12-25T21:26:26.861Z,98599.31
2022-12-25T21:29:00.070Z,98612.31
2022-12-25T21:31:30.672Z,98615.91
2022-12-25T21:33:58.210Z,98635.22
2022-12-25T21:36:28.312Z,98611.19
2022-12-25T21:38:59.525Z,98620.03
2022-12-25T21:41:29.292Z,98626.47
2022-12-25T21:43:58.063Z,98626.31
2022-12-25T21:46:27.783Z,98628.91
2022-12-25T21:48:58.303Z,98629.97
2022-12-25T21:51:46.456Z,98648.34
2022-12-25T21:54:15.738Z,98644.00
2022-12-25T21:56:46.988Z,98631.19
2022-12-25T21:59:17.515Z,98637.91
2022-12-25T22:01:46.483Z,98641.63
2022-12-25T22:04:17.658Z,98658.34
2022-12-25T22:07:04.333Z,98658.22
2022-12-25T22:09:32.927Z,98673.28
2022-12-25T22:12:18.802Z,98658.44
2022-12-25T22:14:55.439Z,98671.38
2022-12-25T22:17:44.017Z,98683.28
2022-12-25T22:20:17.188Z,98682.25
2022-12-25T22:22:45.861Z,98681.72
2022-12-25T22:25:15.202Z,98683.00
2022-12-25T22:27:44.968Z,98692.38
2022-12-25T22:30:15.514Z,98689.94
2022-12-25T22:32:44.315Z,98695.00
2022-12-25T22:35:14.812Z,98688.41
2022-12-25T22:37:43.820Z,98698.69
2022-12-25T22:40:15.092Z,98698.25
2022-12-25T22:42:43.625Z,98697.66
2022-12-25T22:45:13.010Z,98710.78
2022-12-25T22:47:42.075Z,98700.84
2022-12-25T22:50:12.810Z,98707.84
2022-12-25T22:52:45.625Z,98707.13
2022-12-25T22:55:17.520Z,98709.75
2022-12-25T22:57:45.967Z,98695.25
2022-12-25T23:00:15.010Z,98706.13
2022-12-25T23:02:43.609Z,98705.31
2022-12-25T23:05:12.277Z,98716.53
2022-12-25T23:07:42.240Z,98714.03
2022-12-25T23:10:11.639Z,98713.09
2022-12-25T23:12:57.420Z,98726.19
2022-12-25T23:15:27.513Z,98712.84
2022-12-25T23:18:13.399Z,98709.41
2022-12-25T23:20:59.518Z,98706.38
2022-12-25T23:23:47.287Z,98708.91
2022-12-25T23:26:17.717Z,98704.44
2022-12-25T23:29:03.571Z,98693.88
2022-12-25T23:31:34.777Z,98700.84
2022-12-25T23:34:05.171Z,98699.19
2022-12-25T23:36:34.501Z,98686.09
2022-12-25T23:39:09.521Z,98702.94
2022-12-25T23:41:39.401Z,98685.78
2022-12-25T23:44:08.292Z,98708.47
2022-12-25T23:46:37.028Z,98704.19
2022-12-25T23:49:05.902Z,98705.16
2022-12-25T23:51:36.556Z,98713.09
2022-12-25T23:54:07.282Z,98708.00
2022-12-25T23:56:36.202Z,98704.72
2022-12-25T23:59:05.545Z,98703.88
